createdAt,value
2022-12-14T00:16:48.504Z,68.04
2022-12-14T00:20:10.711Z,68.29
2022-12-14T00:23:14.711Z,68.17
2022-12-14T00:26:17.935Z,67.73
2022-12-14T00:30:05.710Z,67.93
2022-12-14T00:43:51.443Z,67.69
2022-12-14T01:03:10.110Z,67.95
2022-12-14T01:06:20.942Z,68.26
2022-12-14T01:09:03.691Z,68.28
2022-12-14T01:15:22.752Z,68.70
2022-12-14T01:34:11.084Z,68.69
2022-12-14T01:39:50.122Z,68.69
2022-12-14T01:45:38.015Z,68.43
2022-12-14T01:48:27.176Z,68.21
2022-12-14T01:58:37.155Z,68.12
2022-12-14T02:01:24.583Z,68.21
2022-12-14T02:03:52.554Z,67.89
2022-12-14T02:06:29.034Z,68.44
2022-12-14T02:08:57.419Z,68.06
2022-12-14T02:11:30.004Z,68.01
2022-12-14T02:13:57.281Z,68.11
2022-12-14T02:16:24.422Z,68.35
2022-12-14T02:18:51.612Z,68.20
2022-12-14T02:21:40.397Z,68.27
2022-12-14T02:24:35.913Z,68.07
2022-12-14T02:27:27.591Z,68.25
2022-12-14T02:30:07.313Z,68.27
2022-12-14T02:32:43.374Z,68.14
2022-12-14T02:35:38.846Z,68.16
2022-12-14T02:38:15.638Z,68.27
2022-12-14T02:41:00.913Z,68.24
2022-12-14T02:43:44.503Z,68.20
2022-12-14T02:46:22.598Z,68.75
2022-12-14T02:49:01.652Z,68.68
2022-12-14T02:51:41.569Z,68.52
2022-12-14T02:54:22.196Z,68.35
2022-12-14T02:56:56.228Z,68.56
2022-12-14T03:03:28.727Z,68.29
2022-12-14T03:06:32.609Z,68.36
2022-12-14T03:18:26.078Z,68.57
2022-12-14T03:28:11.380Z,68.35
2022-12-14T03:38:01.627Z,68.12
2022-12-14T03:41:49.212Z,68.60
2022-12-14T03:48:35.594Z,68.83
2022-12-14T04:08:21.078Z,69.17
2022-12-14T04:18:25.761Z,68.23
2022-12-14T04:21:04.907Z,67.75
2022-12-14T04:30:17.023Z,68.48
2022-12-14T04:33:38.639Z,68.23
2022-12-14T04:46:59.402Z,67.77
2022-12-14T04:50:47.567Z,67.48
2022-12-14T04:54:00.565Z,67.67
2022-12-14T04:57:19.400Z,67.23
2022-12-14T05:09:57.498Z,67.10
2022-12-14T05:13:24.563Z,66.90
2022-12-14T05:19:03.475Z,67.64
2022-12-14T05:25:28.354Z,67.69
2022-12-14T05:31:49.090Z,67.79
2022-12-14T05:35:17.287Z,67.91
2022-12-14T05:47:20.248Z,66.79
2022-12-14T05:56:29.473Z,67.17
2022-12-14T06:09:51.060Z,67.67
2022-12-14T06:26:10.659Z,66.00
2022-12-14T06:29:21.737Z,65.76
2022-12-14T06:32:06.057Z,65.52
2022-12-14T06:38:27.833Z,64.84
2022-12-14T06:41:34.167Z,64.78
2022-12-14T06:44:10.205Z,64.04
2022-12-14T06:46:44.784Z,64.35
2022-12-14T06:50:05.327Z,64.16
2022-12-14T06:53:31.505Z,64.03
2022-12-14T07:07:19.834Z,64.06
2022-12-14T07:11:02.386Z,63.64
2022-12-14T07:14:23.319Z,63.20
2022-12-14T07:17:52.445Z,63.18
2022-12-14T07:24:44.070Z,62.92
2022-12-14T07:30:46.605Z,63.72
2022-12-14T07:36:58.883Z,64.25
2022-12-14T07:42:55.617Z,64.34
2022-12-14T07:46:00.155Z,64.17
2022-12-14T08:01:44.431Z,64.30
2022-12-14T08:07:04.181Z,64.49
2022-12-14T08:09:33.499Z,64.52
2022-12-14T08:12:11.833Z,64.12
2022-12-14T08:14:47.177Z,63.82
2022-12-14T08:17:16.452Z,63.89
2022-12-14T08:19:51.495Z,64.58
2022-12-14T08:22:24.187Z,64.17
2022-12-14T08:24:54.593Z,63.66
2022-12-14T08:27:26.355Z,64.14
2022-12-14T08:30:01.692Z,63.57
2022-12-14T08:32:34.265Z,63.58
2022-12-14T08:35:06.757Z,63.21
2022-12-14T08:37:36.871Z,63.67
2022-12-14T08:40:15.707Z,63.28
2022-12-14T08:42:58.969Z,63.61
2022-12-14T08:48:13.815Z,63.07
2022-12-14T08:50:49.880Z,62.62
2022-12-14T08:53:22.468Z,62.73
2022-12-14T08:55:56.580Z,62.90
2022-12-14T09:01:33.539Z,61.72
2022-12-14T09:04:08.296Z,60.96
2022-12-14T09:06:41.634Z,60.87
2022-12-14T09:09:16.284Z,60.23
2022-12-14T09:11:49.684Z,59.92
2022-12-14T09:14:25.860Z,59.26
2022-12-14T09:16:55.212Z,57.90
2022-12-14T09:19:40.004Z,57.27
2022-12-14T09:22:30.101Z,56.14
2022-12-14T09:25:16.860Z,54.98
2022-12-14T09:27:53.386Z,53.97
2022-12-14T09:30:26.787Z,52.07
2022-12-14T09:35:45.931Z,49.04
2022-12-14T09:38:29.720Z,48.15
2022-12-14T09:41:07.997Z,46.84
2022-12-14T09:43:46.040Z,46.00
2022-12-14T09:46:39.697Z,45.91
2022-12-14T09:49:25.596Z,44.98
2022-12-14T09:51:55.901Z,44.01
2022-12-14T09:54:30.443Z,43.52
2022-12-14T09:57:25.447Z,43.10
2022-12-14T09:59:59.572Z,43.05
2022-12-14T10:03:06.316Z,42.25
2022-12-14T10:06:02.373Z,40.47
2022-12-14T10:09:17.210Z,40.14
2022-12-14T10:15:38.356Z,40.61
2022-12-14T10:22:20.707Z,38.90
2022-12-14T10:25:43.069Z,38.76
2022-12-14T10:35:00.184Z,38.33
2022-12-14T10:38:20.570Z,38.27
2022-12-14T10:40:54.301Z,39.33
2022-12-14T10:43:53.904Z,39.91
2022-12-14T10:46:47.203Z,41.48
2022-12-14T10:49:25.357Z,40.02
2022-12-14T10:52:18.934Z,40.31
2022-12-14T10:54:52.016Z,38.30
2022-12-14T10:57:19.876Z,38.69
2022-12-14T11:00:03.400Z,38.10
2022-12-14T11:02:39.974Z,38.39
2022-12-14T11:05:17.147Z,38.82
2022-12-14T11:07:46.393Z,39.06
2022-12-14T11:10:19.484Z,37.82
2022-12-14T11:13:02.028Z,37.70
2022-12-14T11:15:38.549Z,37.28
2022-12-14T11:18:24.883Z,36.14
2022-12-14T11:20:54.114Z,36.49
2022-12-14T11:23:22.724Z,35.93
2022-12-14T11:25:55.828Z,34.72
2022-12-14T11:28:36.084Z,33.94
2022-12-14T11:31:11.429Z,34.01
2022-12-14T11:33:50.713Z,33.05
2022-12-14T11:36:25.470Z,31.82
2022-12-14T11:38:59.890Z,31.22
2022-12-14T11:41:38.633Z,30.36
2022-12-14T11:44:15.820Z,29.46
2022-12-14T11:47:01.252Z,30.27
2022-12-14T11:49:36.367Z,29.77
2022-12-14T11:52:06.387Z,28.58
2022-12-14T11:54:34.482Z,28.67
2022-12-14T11:57:01.736Z,28.11
2022-12-14T11:59:32.145Z,28.51
2022-12-14T12:02:07.974Z,27.88
2022-12-14T12:04:42.549Z,27.49
2022-12-14T12:07:23.162Z,26.94
2022-12-14T12:09:50.270Z,27.71
2022-12-14T12:12:18.311Z,28.30
2022-12-14T12:14:48.210Z,28.11
2022-12-14T12:17:41.782Z,28.16
2022-12-14T12:20:43.463Z,28.50
2022-12-14T12:23:13.691Z,28.94
2022-12-14T12:25:44.269Z,28.56
2022-12-14T12:28:27.471Z,28.20
2022-12-14T12:30:59.905Z,27.90
2022-12-14T12:33:31.642Z,27.31
2022-12-14T12:36:01.880Z,27.03
2022-12-14T12:38:32.158Z,26.50
2022-12-14T12:41:18.399Z,26.68
2022-12-14T12:43:50.008Z,26.87
2022-12-14T12:46:20.120Z,26.32
2022-12-14T12:49:01.430Z,27.17
2022-12-14T12:51:39.686Z,28.22
2022-12-14T12:54:09.002Z,29.12
2022-12-14T12:56:58.531Z,30.42
2022-12-14T12:59:33.450Z,29.60
2022-12-14T13:02:28.785Z,29.46
2022-12-14T13:05:44.601Z,28.60
2022-12-14T13:08:36.750Z,28.69
2022-12-14T13:11:26.122Z,28.82
2022-12-14T13:14:04.196Z,30.12
2022-12-14T13:16:44.859Z,30.48
2022-12-14T13:19:51.216Z,30.20
2022-12-14T13:22:31.767Z,30.32
2022-12-14T13:25:12.123Z,29.58
2022-12-14T13:28:09.830Z,29.51
2022-12-14T13:30:52.630Z,30.32
2022-12-14T13:33:43.686Z,31.68
2022-12-14T13:36:30.870Z,31.31
2022-12-14T13:39:06.202Z,31.78
2022-12-14T13:41:46.220Z,31.74
2022-12-14T13:44:44.197Z,31.86
2022-12-14T13:47:16.257Z,31.02
2022-12-14T13:50:11.267Z,31.17
2022-12-14T13:52:49.170Z,32.84
2022-12-14T13:55:31.183Z,34.41
2022-12-14T13:58:13.489Z,34.70
2022-12-14T14:00:51.532Z,36.16
2022-12-14T14:03:42.585Z,35.95
2022-12-14T14:06:18.163Z,36.34
2022-12-14T14:08:53.848Z,37.21
2022-12-14T14:11:41.948Z,37.80
2022-12-14T14:14:24.428Z,38.65
2022-12-14T14:16:56.538Z,39.24
2022-12-14T14:19:25.465Z,39.17
2022-12-14T14:22:26.668Z,39.01
2022-12-14T14:25:10.154Z,38.42
2022-12-14T14:28:03.674Z,38.58
2022-12-14T14:30:41.867Z,38.33
2022-12-14T14:36:30.586Z,38.75
2022-12-14T14:39:02.964Z,39.16
2022-12-14T14:41:41.640Z,39.70
2022-12-14T14:44:28.955Z,40.01
2022-12-14T14:47:00.584Z,40.45
2022-12-14T14:49:48.562Z,41.51
2022-12-14T14:52:34.279Z,41.78
2022-12-14T14:55:51.380Z,41.96
2022-12-14T14:58:31.207Z,42.67
2022-12-14T15:01:15.485Z,43.18
2022-12-14T15:03:51.791Z,43.41
2022-12-14T15:06:22.253Z,43.99
2022-12-14T15:09:05.480Z,44.60
2022-12-14T15:11:43.224Z,44.74
2022-12-14T15:14:16.576Z,44.82
2022-12-14T15:16:45.714Z,44.98
2022-12-14T15:19:33.992Z,45.43
2022-12-14T15:22:06.620Z,45.69
2022-12-14T15:24:38.985Z,46.24
2022-12-14T15:27:32.423Z,46.09
2022-12-14T15:30:06.579Z,46.61
2022-12-14T15:32:34.265Z,47.68
2022-12-14T15:35:05.788Z,47.91
2022-12-14T15:37:42.815Z,48.05
2022-12-14T15:40:22.462Z,47.99
2022-12-14T15:42:54.468Z,48.50
2022-12-14T15:45:32.209Z,48.81
2022-12-14T15:48:23.768Z,48.87
2022-12-14T15:50:54.801Z,48.82
2022-12-14T15:53:37.443Z,49.06
2022-12-14T15:56:26.708Z,49.45
2022-12-14T15:58:57.950Z,49.62
2022-12-14T16:01:37.045Z,49.95
2022-12-14T16:04:11.304Z,49.97
2022-12-14T16:06:49.512Z,50.86
2022-12-14T16:09:19.213Z,50.62
2022-12-14T16:11:49.746Z,50.80
2022-12-14T16:14:51.508Z,50.66
2022-12-14T16:17:38.364Z,51.33
2022-12-14T16:20:11.820Z,51.34
2022-12-14T16:22:42.792Z,51.62
2022-12-14T16:25:21.400Z,51.64
2022-12-14T16:27:54.147Z,51.73
2022-12-14T16:30:36.470Z,51.97
2022-12-14T16:33:08.617Z,52.07
2022-12-14T16:35:37.995Z,52.15
2022-12-14T16:38:09.832Z,52.34
2022-12-14T16:40:39.501Z,52.42
2022-12-14T16:43:07.953Z,52.37
2022-12-14T16:45:52.061Z,52.61
2022-12-14T16:48:23.357Z,52.93
2022-12-14T16:51:00.300Z,53.10
2022-12-14T16:53:31.349Z,53.46
2022-12-14T16:56:11.968Z,53.41
2022-12-14T16:58:44.511Z,53.54
2022-12-14T17:01:13.754Z,53.70
2022-12-14T17:03:50.095Z,53.98
2022-12-14T17:06:22.955Z,53.84
2022-12-14T17:08:50.010Z,54.19
2022-12-14T17:11:19.302Z,54.20
2022-12-14T17:14:00.565Z,54.37
2022-12-14T17:16:33.547Z,54.31
2022-12-14T17:19:07.699Z,54.92
2022-12-14T17:21:41.383Z,54.87
2022-12-14T17:24:31.664Z,54.85
2022-12-14T17:27:01.330Z,55.11
2022-12-14T17:29:35.841Z,54.97
2022-12-14T17:32:03.462Z,55.13
2022-12-14T17:34:30.928Z,55.36
2022-12-14T17:37:01.963Z,55.18
2022-12-14T17:39:35.889Z,55.51
2022-12-14T17:42:07.637Z,55.25
2022-12-14T17:44:36.255Z,55.12
2022-12-14T17:47:05.771Z,55.37
2022-12-14T17:49:38.559Z,55.45
2022-12-14T17:52:12.666Z,55.45
2022-12-14T17:54:39.814Z,55.36
2022-12-14T17:57:24.137Z,55.79
2022-12-14T18:00:11.618Z,55.97
2022-12-14T18:02:40.027Z,56.08
2022-12-14T18:05:12.328Z,56.08
2022-12-14T18:07:45.168Z,56.16
2022-12-14T18:10:23.182Z,56.10
2022-12-14T18:12:50.242Z,56.38
2022-12-14T18:15:24.663Z,56.25
2022-12-14T18:17:53.650Z,56.34
2022-12-14T18:20:27.981Z,56.31
2022-12-14T18:22:56.420Z,56.46
2022-12-14T18:25:34.281Z,56.49
2022-12-14T18:28:06.405Z,56.55
2022-12-14T18:30:41.737Z,56.28
2022-12-14T18:33:17.691Z,56.79
2022-12-14T18:35:57.547Z,56.63
2022-12-14T18:38:27.532Z,56.79
2022-12-14T18:40:57.574Z,56.64
2022-12-14T18:43:31.231Z,56.55
2022-12-14T18:46:02.138Z,56.85
2022-12-14T18:48:29.471Z,56.97
2022-12-14T18:51:02.043Z,56.67
2022-12-14T18:53:30.419Z,56.52
2022-12-14T18:56:04.662Z,57.27
2022-12-14T18:58:42.570Z,56.99
2022-12-14T19:01:20.426Z,57.00
2022-12-14T19:03:52.949Z,57.24
2022-12-14T19:06:44.940Z,57.12
2022-12-14T19:09:18.352Z,56.94
2022-12-14T19:11:51.402Z,56.99
2022-12-14T19:14:24.322Z,57.46
2022-12-14T19:16:53.015Z,57.34
2022-12-14T19:19:23.521Z,57.29
2022-12-14T19:22:02.950Z,57.56
2022-12-14T19:24:34.502Z,57.41
2022-12-14T19:27:04.279Z,57.66
2022-12-14T19:29:31.337Z,57.98
2022-12-14T19:32:05.341Z,58.09
2022-12-14T19:34:33.020Z,57.97
2022-12-14T19:37:01.295Z,58.18
2022-12-14T19:39:31.051Z,58.28
2022-12-14T19:41:58.248Z,58.13
2022-12-14T19:44:37.117Z,58.23
2022-12-14T19:47:19.572Z,58.04
2022-12-14T19:49:49.834Z,58.43
2022-12-14T19:52:19.070Z,58.10
2022-12-14T19:54:47.644Z,58.23
2022-12-14T19:57:18.617Z,58.24
2022-12-14T19:59:47.081Z,58.24
2022-12-14T20:02:15.309Z,58.62
2022-12-14T20:04:46.422Z,58.37
2022-12-14T20:07:24.271Z,58.13
2022-12-14T20:09:59.875Z,58.33
2022-12-14T20:12:29.415Z,58.31
2022-12-14T20:15:09.491Z,58.42
2022-12-14T20:17:40.714Z,58.52
2022-12-14T20:20:17.067Z,58.57
2022-12-14T20:22:44.258Z,58.50
2022-12-14T20:25:13.421Z,58.49
2022-12-14T20:27:56.347Z,58.48
2022-12-14T20:30:27.318Z,58.59
2022-12-14T20:33:00.836Z,58.64
2022-12-14T20:38:18.211Z,58.49
2022-12-14T20:40:54.288Z,58.34
2022-12-14T20:43:26.230Z,58.43
2022-12-14T20:46:01.789Z,58.59
2022-12-14T20:48:41.055Z,58.42
2022-12-14T20:51:12.281Z,58.67
2022-12-14T20:53:54.051Z,58.91
2022-12-14T20:56:27.670Z,59.07
2022-12-14T20:58:59.639Z,58.70
2022-12-14T21:01:29.202Z,58.87
2022-12-14T21:04:06.306Z,58.87
2022-12-14T21:06:39.041Z,58.90
2022-12-14T21:09:21.091Z,59.01
2022-12-14T21:12:15.774Z,58.93
2022-12-14T21:14:54.009Z,59.01
2022-12-14T21:17:24.008Z,59.13
2022-12-14T21:20:00.183Z,59.31
2022-12-14T21:22:38.375Z,59.72
2022-12-14T21:25:13.335Z,59.56
2022-12-14T21:27:45.565Z,59.41
2022-12-14T21:30:14.730Z,59.50
2022-12-14T21:32:44.191Z,59.48
2022-12-14T21:35:24.579Z,59.56
2022-12-14T21:38:03.146Z,59.45
2022-12-14T21:40:53.367Z,59.52
2022-12-14T21:43:26.128Z,59.48
2022-12-14T21:46:13.812Z,59.81
2022-12-14T21:48:46.206Z,59.82
2022-12-14T21:51:32.468Z,59.97
2022-12-14T21:54:02.356Z,60.09
2022-12-14T21:57:19.050Z,60.01
2022-12-14T21:59:52.283Z,60.07
2022-12-14T22:02:35.291Z,60.24
2022-12-14T22:05:10.024Z,60.27
2022-12-14T22:07:42.300Z,60.30
2022-12-14T22:10:21.236Z,60.03
2022-12-14T22:13:09.143Z,59.98
2022-12-14T22:15:37.751Z,60.22
2022-12-14T22:18:16.707Z,60.35
2022-12-14T22:20:49.370Z,60.03
2022-12-14T22:23:23.596Z,60.39
2022-12-14T22:25:53.353Z,60.30
2022-12-14T22:28:20.970Z,60.05
2022-12-14T22:30:49.089Z,59.79
2022-12-14T22:33:17.786Z,59.71
2022-12-14T22:35:45.228Z,59.62
2022-12-14T22:38:15.905Z,59.88
2022-12-14T22:40:44.261Z,59.63
2022-12-14T22:43:24.549Z,59.65
2022-12-14T22:45:57.638Z,59.78
2022-12-14T22:48:27.195Z,59.45
2022-12-14T22:50:59.244Z,59.44
2022-12-14T22:53:26.913Z,59.63
2022-12-14T22:55:55.021Z,59.34
2022-12-14T22:58:28.204Z,59.38
2022-12-14T23:00:58.138Z,59.69
2022-12-14T23:03:29.306Z,59.51
2022-12-14T23:06:01.968Z,59.30
2022-12-14T23:08:33.654Z,59.54
2022-12-14T23:11:24.813Z,59.52
2022-12-14T23:14:11.715Z,59.56
2022-12-14T23:17:02.094Z,59.47
2022-12-14T23:19:54.276Z,59.75
2022-12-14T23:22:43.158Z,59.42
2022-12-14T23:25:38.265Z,59.41
2022-12-14T23:28:27.923Z,59.40
2022-12-14T23:31:19.419Z,59.56
2022-12-14T23:34:08.824Z,59.68
2022-12-14T23:36:54.952Z,59.64
2022-12-14T23:39:42.316Z,59.92
2022-12-14T23:42:28.024Z,59.92
2022-12-14T23:45:16.690Z,59.80
2022-12-14T23:48:08.808Z,59.93
2022-12-14T23:50:54.534Z,59.49
2022-12-14T23:53:40.398Z,59.98
2022-12-14T23:56:29.213Z,60.15
2022-12-14T23:59:20.053Z,60.38
